Minidoka, Idaho
Current Conditions -  °F | °C
As of 7:53 PM on Friday 28 Nov 2014 (Local Time) from KBYI Reporting Station
Scattered Clouds Scattered Clouds  
Wind Chill: 51°   Ceiling: Unl
Heat Index: 51°   Visibility: 10mi
Dew Point: 22°   Wind: 10mph
Humidity: 32%   Direction: 200°SSW
Pressure: 29.69"   Gusts: NA
Location:  42.75°N, 113.49°W
Report Text: KBYI 290253Z AUTO 20009KT 10SM SCT120 11/M06 A2969 RMK AO2 SLP035 T01061056 58014
Loading
Personal Weather Stations






























Interactive Weather Map New forecast layout! Learn more

10-Day Weather Forecast

Advertisements
Track Severe Weather on mobile